sensor_id;sensor_type;location;lat;lon;timestamp;pressure;altitude;pressure_sealevel;temperature;humidity
75414;BME280;64758;52.122;5.404;2023-04-03T00:02:00;103329.22;;;2.97;80.36
75414;BME280;64758;52.122;5.404;2023-04-03T00:04:27;103335.97;;;3.02;79.93
75414;BME280;64758;52.122;5.404;2023-04-03T00:06:54;103333.66;;;2.96;79.82
75414;BME280;64758;52.122;5.404;2023-04-03T00:09:20;103346.94;;;2.93;79.58
75414;BME280;64758;52.122;5.404;2023-04-03T00:11:47;103345.28;;;2.91;79.73
75414;BME280;64758;52.122;5.404;2023-04-03T00:14:14;103340.28;;;2.86;80.11
75414;BME280;64758;52.122;5.404;2023-04-03T00:16:40;103350.63;;;2.89;79.58
75414;BME280;64758;52.122;5.404;2023-04-03T00:19:07;103340.28;;;2.86;79.98
75414;BME280;64758;52.122;5.404;2023-04-03T00:21:33;103347.06;;;2.90;80.16
75414;BME280;64758;52.122;5.404;2023-04-03T00:24:00;103341.22;;;2.85;80.00
75414;BME280;64758;52.122;5.404;2023-04-03T00:26:26;103349.75;;;2.89;80.31
75414;BME280;64758;52.122;5.404;2023-04-03T00:28:53;103349.13;;;2.84;80.25
75414;BME280;64758;52.122;5.404;2023-04-03T00:31:20;103353.59;;;2.82;80.69
75414;BME280;64758;52.122;5.404;2023-04-03T00:33:46;103355.47;;;2.80;80.46
75414;BME280;64758;52.122;5.404;2023-04-03T00:36:13;103356.63;;;2.74;80.42
75414;BME280;64758;52.122;5.404;2023-04-03T00:38:40;103360.03;;;2.76;81.27
75414;BME280;64758;52.122;5.404;2023-04-03T00:41:07;103356.47;;;2.77;80.58
75414;BME280;64758;52.122;5.404;2023-04-03T00:43:33;103358.94;;;2.80;80.38
75414;BME280;64758;52.122;5.404;2023-04-03T00:46:00;103366.97;;;2.77;80.57
75414;BME280;64758;52.122;5.404;2023-04-03T00:48:37;103361.88;;;2.74;80.86
75414;BME280;64758;52.122;5.404;2023-04-03T00:51:07;103365.72;;;2.67;81.25
75414;BME280;64758;52.122;5.404;2023-04-03T00:53:39;103359.97;;;2.59;81.14
75414;BME280;64758;52.122;5.404;2023-04-03T00:56:10;103362.47;;;2.62;81.47
75414;BME280;64758;52.122;5.404;2023-04-03T00:59:04;103360.91;;;2.58;81.42
75414;BME280;64758;52.122;5.404;2023-04-03T01:01:29;103366.16;;;2.58;81.83
75414;BME280;64758;52.122;5.404;2023-04-03T01:03:59;103367.84;;;2.59;81.68
75414;BME280;64758;52.122;5.404;2023-04-03T01:06:30;103371.41;;;2.58;82.05
75414;BME280;64758;52.122;5.404;2023-04-03T01:09:00;103365.91;;;2.46;82.72
75414;BME280;64758;52.122;5.404;2023-04-03T01:11:27;103366.59;;;2.49;82.60
75414;BME280;64758;52.122;5.404;2023-04-03T01:13:54;103376.31;;;2.47;82.21
75414;BME280;64758;52.122;5.404;2023-04-03T01:16:20;103373.69;;;2.47;83.00
75414;BME280;64758;52.122;5.404;2023-04-03T01:18:47;103381.00;;;2.41;82.99
75414;BME280;64758;52.122;5.404;2023-04-03T01:23:47;103386.78;;;2.47;83.54
75414;BME280;64758;52.122;5.404;2023-04-03T01:26:19;103379.22;;;2.42;82.66
75414;BME280;64758;52.122;5.404;2023-04-03T01:28:46;103369.88;;;2.36;83.17
75414;BME280;64758;52.122;5.404;2023-04-03T01:31:25;103383.13;;;2.33;83.58
75414;BME280;64758;52.122;5.404;2023-04-03T01:33:54;103388.66;;;2.27;83.39
75414;BME280;64758;52.122;5.404;2023-04-03T01:36:26;103368.81;;;2.22;84.42
75414;BME280;64758;52.122;5.404;2023-04-03T01:38:55;103369.88;;;2.18;84.39
75414;BME280;64758;52.122;5.404;2023-04-03T01:41:22;103379.50;;;2.17;84.34
75414;BME280;64758;52.122;5.404;2023-04-03T01:43:49;103368.31;;;2.14;84.57
75414;BME280;64758;52.122;5.404;2023-04-03T01:46:16;103366.69;;;2.11;84.53
75414;BME280;64758;52.122;5.404;2023-04-03T01:48:43;103377.22;;;2.10;84.89
75414;BME280;64758;52.122;5.404;2023-04-03T01:51:10;103368.66;;;2.06;84.92
75414;BME280;64758;52.122;5.404;2023-04-03T01:53:36;103382.47;;;2.10;86.10
75414;BME280;64758;52.122;5.404;2023-04-03T01:56:04;103374.75;;;2.07;86.09
75414;BME280;64758;52.122;5.404;2023-04-03T01:58:30;103374.09;;;2.02;85.65
75414;BME280;64758;52.122;5.404;2023-04-03T02:00:57;103375.81;;;2.03;86.62
75414;BME280;64758;52.122;5.404;2023-04-03T02:03:24;103380.25;;;2.01;86.01
75414;BME280;64758;52.122;5.404;2023-04-03T02:05:50;103375.16;;;1.98;85.97
75414;BME280;64758;52.122;5.404;2023-04-03T02:08:17;103375.25;;;1.96;86.04
75414;BME280;64758;52.122;5.404;2023-04-03T02:10:47;103380.75;;;1.90;86.71
75414;BME280;64758;52.122;5.404;2023-04-03T02:13:15;103393.72;;;1.93;86.44
75414;BME280;64758;52.122;5.404;2023-04-03T02:15:41;103392.94;;;1.91;86.44
75414;BME280;64758;52.122;5.404;2023-04-03T02:18:08;103388.53;;;1.92;86.99
75414;BME280;64758;52.122;5.404;2023-04-03T02:20:35;103386.06;;;1.89;87.35
75414;BME280;64758;52.122;5.404;2023-04-03T02:23:02;103394.84;;;1.88;87.19
75414;BME280;64758;52.122;5.404;2023-04-03T02:25:33;103399.16;;;1.89;87.19
75414;BME280;64758;52.122;5.404;2023-04-03T02:28:03;103393.28;;;1.84;87.36
75414;BME280;64758;52.122;5.404;2023-04-03T02:30:30;103392.31;;;1.86;87.74
75414;BME280;64758;52.122;5.404;2023-04-03T02:32:57;103389.03;;;1.81;87.58
75414;BME280;64758;52.122;5.404;2023-04-03T02:35:23;103392.47;;;1.82;87.04
75414;BME280;64758;52.122;5.404;2023-04-03T02:37:50;103397.84;;;1.79;87.65
75414;BME280;64758;52.122;5.404;2023-04-03T02:40:17;103384.13;;;1.74;87.82
75414;BME280;64758;52.122;5.404;2023-04-03T02:42:43;103399.44;;;1.63;87.82
75414;BME280;64758;52.122;5.404;2023-04-03T02:45:10;103395.06;;;1.63;87.53
75414;BME280;64758;52.122;5.404;2023-04-03T02:47:36;103389.06;;;1.61;88.25
75414;BME280;64758;52.122;5.404;2023-04-03T02:50:03;103402.19;;;1.60;88.68
75414;BME280;64758;52.122;5.404;2023-04-03T02:52:30;103397.44;;;1.49;88.53
75414;BME280;64758;52.122;5.404;2023-04-03T02:54:56;103411.44;;;1.48;88.29
75414;BME280;64758;52.122;5.404;2023-04-03T02:57:23;103402.16;;;1.41;88.91
75414;BME280;64758;52.122;5.404;2023-04-03T02:59:49;103421.38;;;1.40;88.97
75414;BME280;64758;52.122;5.404;2023-04-03T03:02:16;103415.53;;;1.34;89.23
75414;BME280;64758;52.122;5.404;2023-04-03T03:04:42;103409.97;;;1.22;89.13
75414;BME280;64758;52.122;5.404;2023-04-03T03:07:09;103421.44;;;1.19;89.75
75414;BME280;64758;52.122;5.404;2023-04-03T03:09:36;103419.88;;;1.15;90.21
75414;BME280;64758;52.122;5.404;2023-04-03T03:12:03;103427.59;;;1.18;90.94
75414;BME280;64758;52.122;5.404;2023-04-03T03:14:29;103434.78;;;1.13;90.78
75414;BME280;64758;52.122;5.404;2023-04-03T03:16:56;103438.47;;;1.08;90.76
75414;BME280;64758;52.122;5.404;2023-04-03T03:19:22;103431.50;;;1.08;90.84
75414;BME280;64758;52.122;5.404;2023-04-03T03:21:49;103429.91;;;1.04;91.10
75414;BME280;64758;52.122;5.404;2023-04-03T03:24:16;103439.84;;;0.96;91.50
75414;BME280;64758;52.122;5.404;2023-04-03T03:26:43;103437.34;;;0.93;91.86
75414;BME280;64758;52.122;5.404;2023-04-03T03:29:09;103433.94;;;0.91;91.79
75414;BME280;64758;52.122;5.404;2023-04-03T03:31:36;103430.53;;;0.89;91.77
75414;BME280;64758;52.122;5.404;2023-04-03T03:34:03;103431.50;;;0.87;91.76
75414;BME280;64758;52.122;5.404;2023-04-03T03:36:29;103427.28;;;0.83;92.22
75414;BME280;64758;52.122;5.404;2023-04-03T03:38:55;103433.41;;;0.83;92.49
75414;BME280;64758;52.122;5.404;2023-04-03T03:41:22;103434.31;;;0.82;92.50
75414;BME280;64758;52.122;5.404;2023-04-03T03:43:49;103434.44;;;0.79;92.64
75414;BME280;64758;52.122;5.404;2023-04-03T03:46:15;103431.94;;;0.76;92.46
75414;BME280;64758;52.122;5.404;2023-04-03T03:48:42;103427.63;;;0.75;92.92
75414;BME280;64758;52.122;5.404;2023-04-03T03:51:08;103442.38;;;0.76;93.10
75414;BME280;64758;52.122;5.404;2023-04-03T03:53:35;103443.31;;;0.75;93.22
75414;BME280;64758;52.122;5.404;2023-04-03T03:56:02;103441.59;;;0.74;93.29
75414;BME280;64758;52.122;5.404;2023-04-03T03:58:28;103439.09;;;0.71;93.82
75414;BME280;64758;52.122;5.404;2023-04-03T04:00:55;103439.09;;;0.71;93.91
75414;BME280;64758;52.122;5.404;2023-04-03T04:03:21;103435.56;;;0.72;94.08
75414;BME280;64758;52.122;5.404;2023-04-03T04:05:48;103447.75;;;0.73;93.61
75414;BME280;64758;52.122;5.404;2023-04-03T04:08:15;103431.50;;;0.65;94.55
75414;BME280;64758;52.122;5.404;2023-04-03T04:10:41;103441.97;;;0.65;94.54
75414;BME280;64758;52.122;5.404;2023-04-03T04:13:08;103439.47;;;0.62;94.15
75414;BME280;64758;52.122;5.404;2023-04-03T04:15:34;103447.47;;;0.58;94.58
75414;BME280;64758;52.122;5.404;2023-04-03T04:18:01;103460.59;;;0.56;94.54
75414;BME280;64758;52.122;5.404;2023-04-03T04:20:28;103458.94;;;0.54;94.71
75414;BME280;64758;52.122;5.404;2023-04-03T04:22:55;103440.97;;;0.46;94.54
75414;BME280;64758;52.122;5.404;2023-04-03T04:25:21;103449.75;;;0.44;94.75
75414;BME280;64758;52.122;5.404;2023-04-03T04:27:48;103460.19;;;0.44;94.85
75414;BME280;64758;52.122;5.404;2023-04-03T04:30:14;103455.19;;;0.38;95.36
75414;BME280;64758;52.122;5.404;2023-04-03T04:32:41;103460.50;;;0.36;95.25
75414;BME280;64758;52.122;5.404;2023-04-03T04:35:08;103463.00;;;0.39;95.59
75414;BME280;64758;52.122;5.404;2023-04-03T04:37:34;103460.38;;;0.39;95.79
75414;BME280;64758;52.122;5.404;2023-04-03T04:40:01;103451.91;;;0.33;95.67
75414;BME280;64758;52.122;5.404;2023-04-03T04:42:28;103459.81;;;0.31;95.75
75414;BME280;64758;52.122;5.404;2023-04-03T04:44:54;103470.28;;;0.31;95.91
75414;BME280;64758;52.122;5.404;2023-04-03T04:47:21;103472.09;;;0.29;96.02
75414;BME280;64758;52.122;5.404;2023-04-03T04:49:47;103470.28;;;0.31;96.48
75414;BME280;64758;52.122;5.404;2023-04-03T04:52:14;103470.28;;;0.31;96.73
75414;BME280;64758;52.122;5.404;2023-04-03T04:54:40;103470.44;;;0.27;96.58
75414;BME280;64758;52.122;5.404;2023-04-03T04:57:07;103473.91;;;0.27;96.36
75414;BME280;64758;52.122;5.404;2023-04-03T04:59:34;103467.19;;;0.20;96.75
75414;BME280;64758;52.122;5.404;2023-04-03T05:02:00;103474.97;;;0.22;96.79
75414;BME280;64758;52.122;5.404;2023-04-03T05:04:27;103459.41;;;0.19;96.54
75414;BME280;64758;52.122;5.404;2023-04-03T05:06:54;103471.53;;;0.21;96.73
75414;BME280;64758;52.122;5.404;2023-04-03T05:09:20;103472.44;;;0.20;97.22
75414;BME280;64758;52.122;5.404;2023-04-03T05:11:47;103475.84;;;0.22;97.23
75414;BME280;64758;52.122;5.404;2023-04-03T05:14:14;103475.63;;;0.28;97.47
75414;BME280;64758;52.122;5.404;2023-04-03T05:16:40;103478.13;;;0.31;97.44
75414;BME280;64758;52.122;5.404;2023-04-03T05:19:07;103471.09;;;0.32;97.93
75414;BME280;64758;52.122;5.404;2023-04-03T05:21:33;103472.69;;;0.36;98.15
75414;BME280;64758;52.122;5.404;2023-04-03T05:24:01;103483.91;;;0.39;97.98
75414;BME280;64758;52.122;5.404;2023-04-03T05:26:30;103479.41;;;0.43;98.21
75414;BME280;64758;52.122;5.404;2023-04-03T05:28:58;103493.13;;;0.49;98.40
75414;BME280;64758;52.122;5.404;2023-04-03T05:31:24;103481.75;;;0.50;98.42
75414;BME280;64758;52.122;5.404;2023-04-03T05:33:51;103490.16;;;0.58;98.19
75414;BME280;64758;52.122;5.404;2023-04-03T05:36:17;103487.31;;;0.64;98.24
75414;BME280;64758;52.122;5.404;2023-04-03T05:38:44;103483.47;;;0.73;98.54
75414;BME280;64758;52.122;5.404;2023-04-03T05:41:12;103486.66;;;0.81;98.25
75414;BME280;64758;52.122;5.404;2023-04-03T05:43:38;103488.25;;;0.85;97.66
75414;BME280;64758;52.122;5.404;2023-04-03T05:46:12;103500.25;;;0.90;97.49
75414;BME280;64758;52.122;5.404;2023-04-03T05:48:39;103497.19;;;1.01;97.17
75414;BME280;64758;52.122;5.404;2023-04-03T05:51:06;103490.09;;;1.04;96.80
75414;BME280;64758;52.122;5.404;2023-04-03T05:53:35;103499.41;;;1.11;96.36
75414;BME280;64758;52.122;5.404;2023-04-03T05:56:05;103505.31;;;1.16;96.51
75414;BME280;64758;52.122;5.404;2023-04-03T05:58:32;103502.44;;;1.22;96.52
75414;BME280;64758;52.122;5.404;2023-04-03T06:00:58;103509.00;;;1.32;95.83
75414;BME280;64758;52.122;5.404;2023-04-03T06:03:25;103513.94;;;1.39;95.82
75414;BME280;64758;52.122;5.404;2023-04-03T06:05:52;103519.75;;;1.46;95.13
75414;BME280;64758;52.122;5.404;2023-04-03T06:08:18;103521.34;;;1.50;94.96
75414;BME280;64758;52.122;5.404;2023-04-03T06:10:45;103510.72;;;1.53;95.02
75414;BME280;64758;52.122;5.404;2023-04-03T06:13:12;103514.69;;;1.63;94.69
75414;BME280;64758;52.122;5.404;2023-04-03T06:15:39;103520.56;;;1.68;94.12
75414;BME280;64758;52.122;5.404;2023-04-03T06:18:06;103519.41;;;1.75;93.81
75414;BME280;64758;52.122;5.404;2023-04-03T06:20:33;103508.00;;;1.76;93.84
75414;BME280;64758;52.122;5.404;2023-04-03T06:23:00;103507.75;;;1.82;93.30
75414;BME280;64758;52.122;5.404;2023-04-03T06:25:26;103516.94;;;1.92;93.13
75414;BME280;64758;52.122;5.404;2023-04-03T06:27:53;103510.78;;;1.93;92.42
75414;BME280;64758;52.122;5.404;2023-04-03T06:30:21;103511.50;;;1.96;91.81
75414;BME280;64758;52.122;5.404;2023-04-03T06:32:48;103513.91;;;2.01;91.75
75414;BME280;64758;52.122;5.404;2023-04-03T06:35:14;103519.75;;;2.07;91.40
75414;BME280;64758;52.122;5.404;2023-04-03T06:37:42;103521.38;;;2.10;91.65
75414;BME280;64758;52.122;5.404;2023-04-03T06:40:15;103520.28;;;2.15;91.19
75414;BME280;64758;52.122;5.404;2023-04-03T06:42:45;103531.19;;;2.25;90.70
75414;BME280;64758;52.122;5.404;2023-04-03T06:45:12;103528.38;;;2.29;90.39
75414;BME280;64758;52.122;5.404;2023-04-03T06:47:38;103525.69;;;2.31;90.43
75414;BME280;64758;52.122;5.404;2023-04-03T06:50:05;103535.06;;;2.36;89.49
75414;BME280;64758;52.122;5.404;2023-04-03T06:52:32;103532.22;;;2.41;88.76
75414;BME280;64758;52.122;5.404;2023-04-03T06:54:59;103538.91;;;2.47;89.21
75414;BME280;64758;52.122;5.404;2023-04-03T06:57:26;103548.19;;;2.54;89.18
75414;BME280;64758;52.122;5.404;2023-04-03T06:59:53;103545.16;;;2.63;89.30
75414;BME280;64758;52.122;5.404;2023-04-03T07:02:19;103542.53;;;2.63;87.81
75414;BME280;64758;52.122;5.404;2023-04-03T07:04:47;103548.75;;;2.61;87.94
75414;BME280;64758;52.122;5.404;2023-04-03T07:07:14;103548.56;;;2.65;87.30
75414;BME280;64758;52.122;5.404;2023-04-03T07:09:41;103554.31;;;2.73;87.12
75414;BME280;64758;52.122;5.404;2023-04-03T07:12:10;103548.66;;;2.82;87.29
75414;BME280;64758;52.122;5.404;2023-04-03T07:14:37;103553.63;;;2.88;86.95
75414;BME280;64758;52.122;5.404;2023-04-03T07:17:03;103563.69;;;2.97;87.31
75414;BME280;64758;52.122;5.404;2023-04-03T07:19:30;103557.25;;;3.04;86.25
75414;BME280;64758;52.122;5.404;2023-04-03T07:21:57;103559.59;;;3.10;86.11
75414;BME280;64758;52.122;5.404;2023-04-03T07:24:24;103561.06;;;3.16;85.87
75414;BME280;64758;52.122;5.404;2023-04-03T07:26:51;103569.06;;;3.31;85.87
75414;BME280;64758;52.122;5.404;2023-04-03T07:29:18;103575.75;;;3.38;84.95
75414;BME280;64758;52.122;5.404;2023-04-03T07:31:47;103567.00;;;3.38;84.16
75414;BME280;64758;52.122;5.404;2023-04-03T07:34:14;103558.81;;;3.44;83.44
75414;BME280;64758;52.122;5.404;2023-04-03T07:36:41;103571.16;;;3.60;83.95
75414;BME280;64758;52.122;5.404;2023-04-03T07:39:08;103579.81;;;3.62;82.27
75414;BME280;64758;52.122;5.404;2023-04-03T07:41:34;103570.22;;;3.61;81.95
75414;BME280;64758;52.122;5.404;2023-04-03T07:44:01;103571.47;;;3.71;81.84
75414;BME280;64758;52.122;5.404;2023-04-03T07:46:28;103570.94;;;3.81;81.05
75414;BME280;64758;52.122;5.404;2023-04-03T07:48:55;103578.50;;;3.87;80.73
75414;BME280;64758;52.122;5.404;2023-04-03T07:51:23;103567.84;;;3.90;79.31
75414;BME280;64758;52.122;5.404;2023-04-03T07:53:50;103578.69;;;4.01;79.70
75414;BME280;64758;52.122;5.404;2023-04-03T07:56:17;103575.34;;;4.15;79.20
75414;BME280;64758;52.122;5.404;2023-04-03T07:58:44;103583.16;;;4.33;79.12
75414;BME280;64758;52.122;5.404;2023-04-03T08:01:11;103574.94;;;4.39;77.94
75414;BME280;64758;52.122;5.404;2023-04-03T08:03:39;103571.22;;;4.43;77.62
75414;BME280;64758;52.122;5.404;2023-04-03T08:06:07;103564.78;;;4.49;76.78
75414;BME280;64758;52.122;5.404;2023-04-03T08:08:41;103567.47;;;4.64;76.29
75414;BME280;64758;52.122;5.404;2023-04-03T08:11:07;103571.03;;;4.79;76.91
75414;BME280;64758;52.122;5.404;2023-04-03T08:13:34;103580.75;;;4.94;74.37
75414;BME280;64758;52.122;5.404;2023-04-03T08:16:14;103581.69;;;4.93;74.08
75414;BME280;64758;52.122;5.404;2023-04-03T08:18:42;103578.28;;;4.91;74.46
75414;BME280;64758;52.122;5.404;2023-04-03T08:21:10;103588.31;;;4.99;72.64
75414;BME280;64758;52.122;5.404;2023-04-03T08:23:38;103581.69;;;4.93;71.55
75414;BME280;64758;52.122;5.404;2023-04-03T08:26:10;103590.47;;;5.08;70.95
75414;BME280;64758;52.122;5.404;2023-04-03T08:28:38;103582.38;;;5.27;70.78
75414;BME280;64758;52.122;5.404;2023-04-03T08:31:07;103588.59;;;5.41;70.31
75414;BME280;64758;52.122;5.404;2023-04-03T08:33:34;103595.47;;;5.44;69.38
75414;BME280;64758;52.122;5.404;2023-04-03T08:36:03;103597.75;;;5.65;69.18
75414;BME280;64758;52.122;5.404;2023-04-03T08:38:30;103592.59;;;5.79;67.16
75414;BME280;64758;52.122;5.404;2023-04-03T08:49:21;103594.47;;;6.36;62.19
75414;BME280;64758;52.122;5.404;2023-04-03T08:51:50;103587.66;;;6.60;61.69
75414;BME280;64758;52.122;5.404;2023-04-03T08:54:30;103587.84;;;6.71;61.03
75414;BME280;64758;52.122;5.404;2023-04-03T08:57:03;103601.16;;;6.69;58.01
75414;BME280;64758;52.122;5.404;2023-04-03T08:59:36;103591.44;;;6.56;56.12
75414;BME280;64758;52.122;5.404;2023-04-03T09:02:17;103590.31;;;6.74;56.61
75414;BME280;64758;52.122;5.404;2023-04-03T09:04:48;103589.56;;;6.86;56.82
75414;BME280;64758;52.122;5.404;2023-04-03T09:10:15;103591.44;;;6.98;53.17
75414;BME280;64758;52.122;5.404;2023-04-03T09:12:49;103584.38;;;7.12;52.65
75414;BME280;64758;52.122;5.404;2023-04-03T09:15:21;103580.19;;;7.22;52.51
75414;BME280;64758;52.122;5.404;2023-04-03T09:18:30;103582.63;;;7.25;51.33
75414;BME280;64758;52.122;5.404;2023-04-03T09:21:17;103584.38;;;6.98;52.33
75414;BME280;64758;52.122;5.404;2023-04-03T09:23:51;103598.03;;;7.05;51.05
75414;BME280;64758;52.122;5.404;2023-04-03T09:26:26;103590.59;;;7.11;50.28
75414;BME280;64758;52.122;5.404;2023-04-03T09:28:59;103594.41;;;7.34;49.44
75414;BME280;64758;52.122;5.404;2023-04-03T09:31:48;103586.19;;;7.38;49.74
75414;BME280;64758;52.122;5.404;2023-04-03T09:34:23;103581.47;;;7.43;47.36
75414;BME280;64758;52.122;5.404;2023-04-03T09:36:52;103581.38;;;7.31;46.25
75414;BME280;64758;52.122;5.404;2023-04-03T09:39:22;103580.75;;;7.27;45.69
75414;BME280;64758;52.122;5.404;2023-04-03T09:42:04;103578.00;;;7.29;46.19
75414;BME280;64758;52.122;5.404;2023-04-03T09:44:35;103574.72;;;7.25;45.38
75414;BME280;64758;52.122;5.404;2023-04-03T09:49:46;103569.47;;;7.38;45.52
75414;BME280;64758;52.122;5.404;2023-04-03T09:52:26;103563.69;;;7.45;45.42
75414;BME280;64758;52.122;5.404;2023-04-03T09:54:52;103555.47;;;7.50;45.16
75414;BME280;64758;52.122;5.404;2023-04-03T09:57:19;103562.94;;;7.69;43.72
75414;BME280;64758;52.122;5.404;2023-04-03T09:59:57;103557.13;;;7.77;44.50
75414;BME280;64758;52.122;5.404;2023-04-03T10:02:32;103546.44;;;7.78;42.81
75414;BME280;64758;52.122;5.404;2023-04-03T10:05:00;103547.53;;;7.88;43.33
75414;BME280;64758;52.122;5.404;2023-04-03T10:07:35;103524.88;;;7.97;42.23
75414;BME280;64758;52.122;5.404;2023-04-03T10:10:21;103532.09;;;7.95;42.26
75414;BME280;64758;52.122;5.404;2023-04-03T10:13:11;103530.41;;;8.06;42.51
75414;BME280;64758;52.122;5.404;2023-04-03T10:16:01;103520.84;;;8.30;43.72
75414;BME280;64758;52.122;5.404;2023-04-03T10:18:32;103533.13;;;8.56;41.58
75414;BME280;64758;52.122;5.404;2023-04-03T10:24:22;103520.06;;;8.41;41.40
75414;BME280;64758;52.122;5.404;2023-04-03T10:32:22;103507.16;;;8.61;39.95
75414;BME280;64758;52.122;5.404;2023-04-03T10:35:10;103505.25;;;8.38;40.76
75414;BME280;64758;52.122;5.404;2023-04-03T10:37:47;103504.41;;;8.50;41.82
75414;BME280;64758;52.122;5.404;2023-04-03T10:40:59;103498.94;;;8.77;42.37
75414;BME280;64758;52.122;5.404;2023-04-03T10:46:15;103492.19;;;8.96;40.94
75414;BME280;64758;52.122;5.404;2023-04-03T10:54:27;103463.00;;;9.32;38.82
75414;BME280;64758;52.122;5.404;2023-04-03T10:57:03;103483.38;;;9.66;38.72
75414;BME280;64758;52.122;5.404;2023-04-03T10:59:48;103469.56;;;9.73;39.05
75414;BME280;64758;52.122;5.404;2023-04-03T11:02:26;103480.31;;;9.83;39.86
75414;BME280;64758;52.122;5.404;2023-04-03T11:05:02;103467.00;;;9.72;38.98
75414;BME280;64758;52.122;5.404;2023-04-03T11:07:38;103468.06;;;9.58;40.10
75414;BME280;64758;52.122;5.404;2023-04-03T11:10:18;103465.69;;;9.66;39.32
75414;BME280;64758;52.122;5.404;2023-04-03T11:12:52;103466.47;;;9.56;38.82
75414;BME280;64758;52.122;5.404;2023-04-03T11:15:24;103465.19;;;9.61;40.47
75414;BME280;64758;52.122;5.404;2023-04-03T11:17:57;103462.44;;;9.74;39.51
75414;BME280;64758;52.122;5.404;2023-04-03T11:20:28;103462.94;;;9.90;40.43
75414;BME280;64758;52.122;5.404;2023-04-03T11:25:46;103466.63;;;9.65;40.27
75414;BME280;64758;52.122;5.404;2023-04-03T11:28:16;103463.13;;;9.65;40.32
75414;BME280;64758;52.122;5.404;2023-04-03T11:36:29;103468.22;;;9.79;38.41
75414;BME280;64758;52.122;5.404;2023-04-03T11:39:23;103462.91;;;9.79;40.06
75414;BME280;64758;52.122;5.404;2023-04-03T11:41:52;103456.69;;;9.91;41.72
75414;BME280;64758;52.122;5.404;2023-04-03T11:44:37;103458.59;;;9.89;40.25
75414;BME280;64758;52.122;5.404;2023-04-03T11:47:10;103442.31;;;9.82;39.90
75414;BME280;64758;52.122;5.404;2023-04-03T11:50:01;103454.66;;;9.94;41.10
75414;BME280;64758;52.122;5.404;2023-04-03T12:00:47;103449.63;;;10.02;42.97
75414;BME280;64758;52.122;5.404;2023-04-03T12:16:20;103428.25;;;10.04;38.77
75414;BME280;64758;52.122;5.404;2023-04-03T12:21:23;103406.03;;;10.37;38.65
75414;BME280;64758;52.122;5.404;2023-04-03T12:26:31;103410.88;;;10.32;39.24
75414;BME280;64758;52.122;5.404;2023-04-03T12:48:37;103385.38;;;10.41;38.93
75414;BME280;64758;52.122;5.404;2023-04-03T12:51:06;103370.53;;;10.27;39.49
75414;BME280;64758;52.122;5.404;2023-04-03T12:53:35;103374.63;;;10.42;40.73
75414;BME280;64758;52.122;5.404;2023-04-03T12:56:29;103362.97;;;10.76;40.03
75414;BME280;64758;52.122;5.404;2023-04-03T13:01:58;103360.13;;;10.46;40.63
75414;BME280;64758;52.122;5.404;2023-04-03T13:04:26;103358.50;;;10.66;38.45
75414;BME280;64758;52.122;5.404;2023-04-03T13:06:54;103359.41;;;10.55;39.02
75414;BME280;64758;52.122;5.404;2023-04-03T13:09:23;103350.69;;;10.53;38.69
75414;BME280;64758;52.122;5.404;2023-04-03T13:11:52;103346.09;;;10.55;38.77
75414;BME280;64758;52.122;5.404;2023-04-03T13:14:24;103349.94;;;10.62;39.29
75414;BME280;64758;52.122;5.404;2023-04-03T13:16:59;103348.75;;;10.55;38.36
75414;BME280;64758;52.122;5.404;2023-04-03T13:19:29;103352.75;;;10.50;38.64
75414;BME280;64758;52.122;5.404;2023-04-03T13:22:04;103351.09;;;10.27;39.43
75414;BME280;64758;52.122;5.404;2023-04-03T13:24:35;103342.66;;;10.22;38.84
75414;BME280;64758;52.122;5.404;2023-04-03T13:27:04;103337.22;;;10.34;40.89
75414;BME280;64758;52.122;5.404;2023-04-03T13:29:35;103338.88;;;10.46;39.49
75414;BME280;64758;52.122;5.404;2023-04-03T13:32:03;103340.88;;;10.65;40.77
75414;BME280;64758;52.122;5.404;2023-04-03T13:34:43;103335.84;;;10.51;39.08
75414;BME280;64758;52.122;5.404;2023-04-03T13:37:24;103342.50;;;10.45;39.78
75414;BME280;64758;52.122;5.404;2023-04-03T13:42:36;103342.94;;;10.61;40.23
75414;BME280;64758;52.122;5.404;2023-04-03T13:45:22;103335.78;;;10.73;39.60
75414;BME280;64758;52.122;5.404;2023-04-03T13:47:52;103341.97;;;10.62;39.25
75414;BME280;64758;52.122;5.404;2023-04-03T13:50:23;103346.72;;;10.48;39.10
75414;BME280;64758;52.122;5.404;2023-04-03T13:53:12;103344.44;;;10.43;38.92
75414;BME280;64758;52.122;5.404;2023-04-03T13:58:26;103336.59;;;10.84;39.01
75414;BME280;64758;52.122;5.404;2023-04-03T14:03:45;103333.84;;;11.06;38.96
75414;BME280;64758;52.122;5.404;2023-04-03T14:06:15;103327.84;;;10.93;38.25
75414;BME280;64758;52.122;5.404;2023-04-03T14:08:44;103325.09;;;11.15;38.69
75414;BME280;64758;52.122;5.404;2023-04-03T14:11:17;103322.56;;;11.34;37.87
75414;BME280;64758;52.122;5.404;2023-04-03T14:13:45;103316.72;;;11.40;37.62
75414;BME280;64758;52.122;5.404;2023-04-03T14:16:22;103310.88;;;11.46;37.17
75414;BME280;64758;52.122;5.404;2023-04-03T14:18:50;103309.50;;;11.31;37.00
75414;BME280;64758;52.122;5.404;2023-04-03T14:21:19;103306.59;;;11.34;36.93
75414;BME280;64758;52.122;5.404;2023-04-03T14:23:46;103309.63;;;11.30;36.53
75414;BME280;64758;52.122;5.404;2023-04-03T14:26:23;103296.78;;;11.55;36.81
75414;BME280;64758;52.122;5.404;2023-04-03T14:28:54;103292.03;;;11.88;37.31
75414;BME280;64758;52.122;5.404;2023-04-03T14:31:22;103279.16;;;12.03;37.03
75414;BME280;64758;52.122;5.404;2023-04-03T14:33:49;103280.75;;;12.15;38.02
75414;BME280;64758;52.122;5.404;2023-04-03T14:36:27;103276.75;;;12.39;37.97
75414;BME280;64758;52.122;5.404;2023-04-03T14:38:54;103266.22;;;12.75;37.13
75414;BME280;64758;52.122;5.404;2023-04-03T14:41:23;103267.19;;;12.84;36.81
75414;BME280;64758;52.122;5.404;2023-04-03T14:43:50;103264.69;;;13.01;35.89
75414;BME280;64758;52.122;5.404;2023-04-03T14:46:35;103276.44;;;13.27;36.29
75414;BME280;64758;52.122;5.404;2023-04-03T14:49:24;103275.28;;;13.39;36.76
75414;BME280;64758;52.122;5.404;2023-04-03T14:51:52;103276.63;;;13.62;35.39